sensor_id;sensor_type;location;lat;lon;timestamp;temperature;humidity
67147;DHT22;70072;52.036;5.558;2023-12-20T00:02:23;17.90;73.20
67147;DHT22;70072;52.036;5.558;2023-12-20T00:04:49;17.90;73.20
67147;DHT22;70072;52.036;5.558;2023-12-20T00:07:15;17.90;73.20
67147;DHT22;70072;52.036;5.558;2023-12-20T00:09:41;17.90;73.20
67147;DHT22;70072;52.036;5.558;2023-12-20T00:12:07;17.90;73.20
67147;DHT22;70072;52.036;5.558;2023-12-20T00:14:32;17.90;73.20
67147;DHT22;70072;52.036;5.558;2023-12-20T00:16:58;17.90;73.20
67147;DHT22;70072;52.036;5.558;2023-12-20T00:19:23;17.90;73.10
67147;DHT22;70072;52.036;5.558;2023-12-20T00:21:49;17.90;73.20
67147;DHT22;70072;52.036;5.558;2023-12-20T00:24:15;17.90;73.10
67147;DHT22;70072;52.036;5.558;2023-12-20T00:26:41;17.90;73.10
67147;DHT22;70072;52.036;5.558;2023-12-20T00:29:07;17.90;73.10
67147;DHT22;70072;52.036;5.558;2023-12-20T00:31:33;17.90;73.00
67147;DHT22;70072;52.036;5.558;2023-12-20T00:33:58;17.90;73.10
67147;DHT22;70072;52.036;5.558;2023-12-20T00:36:24;17.90;73.00
67147;DHT22;70072;52.036;5.558;2023-12-20T00:38:50;17.90;73.00
67147;DHT22;70072;52.036;5.558;2023-12-20T00:41:16;17.90;73.00
67147;DHT22;70072;52.036;5.558;2023-12-20T00:43:44;17.90;73.00
67147;DHT22;70072;52.036;5.558;2023-12-20T00:46:10;17.90;73.00
67147;DHT22;70072;52.036;5.558;2023-12-20T00:48:36;17.90;73.00
67147;DHT22;70072;52.036;5.558;2023-12-20T00:51:01;17.90;73.00
67147;DHT22;70072;52.036;5.558;2023-12-20T00:53:27;17.90;73.00
67147;DHT22;70072;52.036;5.558;2023-12-20T00:55:53;17.90;73.60
67147;DHT22;70072;52.036;5.558;2023-12-20T00:58:18;17.90;73.00
67147;DHT22;70072;52.036;5.558;2023-12-20T01:00:44;17.90;72.90
67147;DHT22;70072;52.036;5.558;2023-12-20T01:03:09;17.90;72.90
67147;DHT22;70072;52.036;5.558;2023-12-20T01:05:35;17.90;72.90
67147;DHT22;70072;52.036;5.558;2023-12-20T01:08:01;17.90;72.80
67147;DHT22;70072;52.036;5.558;2023-12-20T01:10:28;17.90;72.90
67147;DHT22;70072;52.036;5.558;2023-12-20T01:12:54;17.90;72.80
67147;DHT22;70072;52.036;5.558;2023-12-20T01:15:20;17.90;72.80
67147;DHT22;70072;52.036;5.558;2023-12-20T01:17:46;17.90;72.80
67147;DHT22;70072;52.036;5.558;2023-12-20T01:20:12;17.90;72.80
67147;DHT22;70072;52.036;5.558;2023-12-20T01:22:38;17.90;72.80
67147;DHT22;70072;52.036;5.558;2023-12-20T01:25:03;17.90;72.80
67147;DHT22;70072;52.036;5.558;2023-12-20T01:27:29;17.80;72.70
67147;DHT22;70072;52.036;5.558;2023-12-20T01:29:56;17.90;72.70
67147;DHT22;70072;52.036;5.558;2023-12-20T01:32:22;17.80;72.60
67147;DHT22;70072;52.036;5.558;2023-12-20T01:34:48;17.90;72.70
67147;DHT22;70072;52.036;5.558;2023-12-20T01:37:14;17.80;72.60
67147;DHT22;70072;52.036;5.558;2023-12-20T01:39:39;17.90;72.70
67147;DHT22;70072;52.036;5.558;2023-12-20T01:42:05;17.80;72.60
67147;DHT22;70072;52.036;5.558;2023-12-20T01:44:30;17.80;72.60
67147;DHT22;70072;52.036;5.558;2023-12-20T01:46:56;17.80;72.60
67147;DHT22;70072;52.036;5.558;2023-12-20T01:49:22;17.80;72.60
67147;DHT22;70072;52.036;5.558;2023-12-20T01:51:49;17.80;72.50
67147;DHT22;70072;52.036;5.558;2023-12-20T01:54:15;17.90;72.60
67147;DHT22;70072;52.036;5.558;2023-12-20T01:56:42;17.80;72.50
67147;DHT22;70072;52.036;5.558;2023-12-20T01:59:08;17.80;72.50
67147;DHT22;70072;52.036;5.558;2023-12-20T02:01:35;17.80;72.50
67147;DHT22;70072;52.036;5.558;2023-12-20T02:04:02;17.80;72.50
67147;DHT22;70072;52.036;5.558;2023-12-20T02:06:31;17.80;72.40
67147;DHT22;70072;52.036;5.558;2023-12-20T02:08:59;17.80;72.40
67147;DHT22;70072;52.036;5.558;2023-12-20T02:11:27;17.80;72.40
67147;DHT22;70072;52.036;5.558;2023-12-20T02:13:54;17.80;72.40
67147;DHT22;70072;52.036;5.558;2023-12-20T02:16:20;17.80;72.40
67147;DHT22;70072;52.036;5.558;2023-12-20T02:18:46;17.80;72.40
67147;DHT22;70072;52.036;5.558;2023-12-20T02:21:12;17.80;72.30
67147;DHT22;70072;52.036;5.558;2023-12-20T02:23:37;17.80;72.30
67147;DHT22;70072;52.036;5.558;2023-12-20T02:26:04;17.80;72.30
67147;DHT22;70072;52.036;5.558;2023-12-20T02:28:32;17.80;72.30
67147;DHT22;70072;52.036;5.558;2023-12-20T02:30:57;17.80;72.30
67147;DHT22;70072;52.036;5.558;2023-12-20T02:33:23;17.80;72.30
67147;DHT22;70072;52.036;5.558;2023-12-20T02:35:51;17.80;72.30
67147;DHT22;70072;52.036;5.558;2023-12-20T02:38:18;17.80;72.30
67147;DHT22;70072;52.036;5.558;2023-12-20T02:40:43;17.80;72.30
67147;DHT22;70072;52.036;5.558;2023-12-20T02:43:09;17.80;72.30
67147;DHT22;70072;52.036;5.558;2023-12-20T02:45:37;17.80;72.20
67147;DHT22;70072;52.036;5.558;2023-12-20T02:48:03;17.80;72.20
67147;DHT22;70072;52.036;5.558;2023-12-20T02:50:29;17.80;72.20
67147;DHT22;70072;52.036;5.558;2023-12-20T02:52:54;17.80;72.20
67147;DHT22;70072;52.036;5.558;2023-12-20T02:55:20;17.80;72.20
67147;DHT22;70072;52.036;5.558;2023-12-20T02:57:45;17.70;72.10
67147;DHT22;70072;52.036;5.558;2023-12-20T03:00:11;17.70;72.10
67147;DHT22;70072;52.036;5.558;2023-12-20T03:02:37;17.80;72.10
67147;DHT22;70072;52.036;5.558;2023-12-20T03:05:03;17.80;72.20
67147;DHT22;70072;52.036;5.558;2023-12-20T03:07:28;17.70;72.10
67147;DHT22;70072;52.036;5.558;2023-12-20T03:09:54;17.70;72.10
67147;DHT22;70072;52.036;5.558;2023-12-20T03:12:22;17.80;72.10
67147;DHT22;70072;52.036;5.558;2023-12-20T03:14:48;17.70;72.10
67147;DHT22;70072;52.036;5.558;2023-12-20T03:17:14;17.80;72.10
67147;DHT22;70072;52.036;5.558;2023-12-20T03:19:39;17.70;72.70
67147;DHT22;70072;52.036;5.558;2023-12-20T03:22:05;17.70;72.00
67147;DHT22;70072;52.036;5.558;2023-12-20T03:24:30;17.70;72.00
67147;DHT22;70072;52.036;5.558;2023-12-20T03:26:56;17.70;72.00
67147;DHT22;70072;52.036;5.558;2023-12-20T03:29:22;17.80;72.10
67147;DHT22;70072;52.036;5.558;2023-12-20T03:31:47;17.70;72.00
67147;DHT22;70072;52.036;5.558;2023-12-20T03:34:13;17.70;72.00
67147;DHT22;70072;52.036;5.558;2023-12-20T03:36:38;17.70;72.00
67147;DHT22;70072;52.036;5.558;2023-12-20T03:39:04;17.70;72.00
67147;DHT22;70072;52.036;5.558;2023-12-20T03:41:30;17.70;72.00
67147;DHT22;70072;52.036;5.558;2023-12-20T03:43:58;17.70;72.00
67147;DHT22;70072;52.036;5.558;2023-12-20T03:46:24;17.70;72.00
67147;DHT22;70072;52.036;5.558;2023-12-20T03:48:51;17.70;72.00
67147;DHT22;70072;52.036;5.558;2023-12-20T03:51:17;17.70;72.00
67147;DHT22;70072;52.036;5.558;2023-12-20T03:53:44;17.70;71.90
67147;DHT22;70072;52.036;5.558;2023-12-20T03:56:09;17.70;72.00
67147;DHT22;70072;52.036;5.558;2023-12-20T03:58:35;17.70;72.00
67147;DHT22;70072;52.036;5.558;2023-12-20T04:01:00;17.70;72.00
67147;DHT22;70072;52.036;5.558;2023-12-20T04:03:26;17.70;71.90
67147;DHT22;70072;52.036;5.558;2023-12-20T04:05:53;17.70;72.00
67147;DHT22;70072;52.036;5.558;2023-12-20T04:08:18;17.70;71.90
67147;DHT22;70072;52.036;5.558;2023-12-20T04:10:44;17.70;71.90
67147;DHT22;70072;52.036;5.558;2023-12-20T04:13:09;17.70;71.90
67147;DHT22;70072;52.036;5.558;2023-12-20T04:15:35;17.70;71.90
67147;DHT22;70072;52.036;5.558;2023-12-20T04:18:01;17.70;71.90
67147;DHT22;70072;52.036;5.558;2023-12-20T04:20:26;17.70;71.90
67147;DHT22;70072;52.036;5.558;2023-12-20T04:22:52;17.70;71.90
67147;DHT22;70072;52.036;5.558;2023-12-20T04:25:17;17.70;71.90
67147;DHT22;70072;52.036;5.558;2023-12-20T04:27:43;17.70;72.20
67147;DHT22;70072;52.036;5.558;2023-12-20T04:30:09;17.70;71.90
67147;DHT22;70072;52.036;5.558;2023-12-20T04:32:35;17.70;71.90
67147;DHT22;70072;52.036;5.558;2023-12-20T04:35:00;17.70;71.90
67147;DHT22;70072;52.036;5.558;2023-12-20T04:37:26;17.70;71.90
67147;DHT22;70072;52.036;5.558;2023-12-20T04:39:52;17.70;71.90
67147;DHT22;70072;52.036;5.558;2023-12-20T04:42:17;17.70;71.80
67147;DHT22;70072;52.036;5.558;2023-12-20T04:44:43;17.70;71.80
67147;DHT22;70072;52.036;5.558;2023-12-20T04:47:09;17.70;71.80
67147;DHT22;70072;52.036;5.558;2023-12-20T04:49:34;17.70;71.80
67147;DHT22;70072;52.036;5.558;2023-12-20T04:52:00;17.70;72.40
67147;DHT22;70072;52.036;5.558;2023-12-20T04:54:26;17.70;71.80
67147;DHT22;70072;52.036;5.558;2023-12-20T04:56:53;17.70;71.80
67147;DHT22;70072;52.036;5.558;2023-12-20T04:59:19;17.70;71.70
67147;DHT22;70072;52.036;5.558;2023-12-20T05:01:45;17.70;71.70
67147;DHT22;70072;52.036;5.558;2023-12-20T05:04:11;17.70;71.70
67147;DHT22;70072;52.036;5.558;2023-12-20T05:06:37;17.70;71.70
67147;DHT22;70072;52.036;5.558;2023-12-20T05:09:03;17.70;71.70
67147;DHT22;70072;52.036;5.558;2023-12-20T05:11:28;17.70;71.70
67147;DHT22;70072;52.036;5.558;2023-12-20T05:13:54;17.70;71.70
67147;DHT22;70072;52.036;5.558;2023-12-20T05:16:19;17.70;71.70
67147;DHT22;70072;52.036;5.558;2023-12-20T05:18:47;17.70;71.70
67147;DHT22;70072;52.036;5.558;2023-12-20T05:21:13;17.70;71.70
67147;DHT22;70072;52.036;5.558;2023-12-20T05:23:41;17.70;71.60
67147;DHT22;70072;52.036;5.558;2023-12-20T05:26:07;17.70;71.60
67147;DHT22;70072;52.036;5.558;2023-12-20T05:28:32;17.70;71.70
67147;DHT22;70072;52.036;5.558;2023-12-20T05:30:58;17.70;71.70
67147;DHT22;70072;52.036;5.558;2023-12-20T05:33:24;17.70;71.60
67147;DHT22;70072;52.036;5.558;2023-12-20T05:35:50;17.70;71.60
67147;DHT22;70072;52.036;5.558;2023-12-20T05:38:15;17.70;71.60
67147;DHT22;70072;52.036;5.558;2023-12-20T05:40:42;17.70;71.60
67147;DHT22;70072;52.036;5.558;2023-12-20T05:43:10;17.70;71.60
67147;DHT22;70072;52.036;5.558;2023-12-20T05:45:38;17.70;71.50
67147;DHT22;70072;52.036;5.558;2023-12-20T05:48:04;17.70;71.60
67147;DHT22;70072;52.036;5.558;2023-12-20T05:50:29;17.70;71.50
67147;DHT22;70072;52.036;5.558;2023-12-20T05:52:55;17.70;71.50
67147;DHT22;70072;52.036;5.558;2023-12-20T05:55:21;17.70;71.50
67147;DHT22;70072;52.036;5.558;2023-12-20T05:57:47;17.70;71.50
67147;DHT22;70072;52.036;5.558;2023-12-20T06:00:14;17.70;71.50
67147;DHT22;70072;52.036;5.558;2023-12-20T06:02:41;17.70;71.50
67147;DHT22;70072;52.036;5.558;2023-12-20T06:05:07;17.70;71.50
67147;DHT22;70072;52.036;5.558;2023-12-20T06:07:34;17.70;71.50
67147;DHT22;70072;52.036;5.558;2023-12-20T06:09:59;17.70;71.50
67147;DHT22;70072;52.036;5.558;2023-12-20T06:12:25;17.70;71.50
67147;DHT22;70072;52.036;5.558;2023-12-20T06:14:52;17.70;71.50
67147;DHT22;70072;52.036;5.558;2023-12-20T06:17:18;17.70;72.10
67147;DHT22;70072;52.036;5.558;2023-12-20T06:19:44;17.70;71.40
67147;DHT22;70072;52.036;5.558;2023-12-20T06:22:10;17.70;71.40
67147;DHT22;70072;52.036;5.558;2023-12-20T06:24:38;17.70;71.40
67147;DHT22;70072;52.036;5.558;2023-12-20T06:27:04;17.70;71.40
67147;DHT22;70072;52.036;5.558;2023-12-20T06:29:29;17.70;71.40
67147;DHT22;70072;52.036;5.558;2023-12-20T06:31:56;17.70;71.40
67147;DHT22;70072;52.036;5.558;2023-12-20T06:34:22;17.70;71.40
67147;DHT22;70072;52.036;5.558;2023-12-20T06:36:47;17.70;71.40
67147;DHT22;70072;52.036;5.558;2023-12-20T06:39:13;17.70;71.40
67147;DHT22;70072;52.036;5.558;2023-12-20T06:41:39;17.70;71.40
67147;DHT22;70072;52.036;5.558;2023-12-20T06:44:05;17.70;71.30
67147;DHT22;70072;52.036;5.558;2023-12-20T06:46:30;17.70;71.30
67147;DHT22;70072;52.036;5.558;2023-12-20T06:48:56;17.70;72.00
67147;DHT22;70072;52.036;5.558;2023-12-20T06:51:22;17.70;71.30
67147;DHT22;70072;52.036;5.558;2023-12-20T06:53:51;17.70;71.30
67147;DHT22;70072;52.036;5.558;2023-12-20T06:56:17;17.70;71.30
67147;DHT22;70072;52.036;5.558;2023-12-20T06:58:42;17.70;71.30
67147;DHT22;70072;52.036;5.558;2023-12-20T07:01:12;17.70;71.30
67147;DHT22;70072;52.036;5.558;2023-12-20T07:03:38;17.70;71.30
67147;DHT22;70072;52.036;5.558;2023-12-20T07:06:04;17.70;71.30
67147;DHT22;70072;52.036;5.558;2023-12-20T07:08:29;17.70;71.30
67147;DHT22;70072;52.036;5.558;2023-12-20T07:10:57;17.70;71.30
67147;DHT22;70072;52.036;5.558;2023-12-20T07:13:23;17.70;71.30
67147;DHT22;70072;52.036;5.558;2023-12-20T07:15:49;17.60;71.30
67147;DHT22;70072;52.036;5.558;2023-12-20T07:18:14;17.60;71.30
67147;DHT22;70072;52.036;5.558;2023-12-20T07:20:43;17.70;71.30
67147;DHT22;70072;52.036;5.558;2023-12-20T07:23:08;17.60;71.30
67147;DHT22;70072;52.036;5.558;2023-12-20T07:25:34;17.60;71.30
67147;DHT22;70072;52.036;5.558;2023-12-20T07:28:00;17.60;71.30
67147;DHT22;70072;52.036;5.558;2023-12-20T07:30:26;17.60;71.30
67147;DHT22;70072;52.036;5.558;2023-12-20T07:32:51;17.60;71.20
67147;DHT22;70072;52.036;5.558;2023-12-20T07:35:18;17.60;71.30
67147;DHT22;70072;52.036;5.558;2023-12-20T07:37:44;17.60;71.30
67147;DHT22;70072;52.036;5.558;2023-12-20T07:40:10;17.60;71.30
67147;DHT22;70072;52.036;5.558;2023-12-20T07:42:36;17.60;71.30
67147;DHT22;70072;52.036;5.558;2023-12-20T07:45:01;17.60;71.30
67147;DHT22;70072;52.036;5.558;2023-12-20T07:47:27;17.60;71.30
67147;DHT22;70072;52.036;5.558;2023-12-20T07:49:52;17.60;71.30
67147;DHT22;70072;52.036;5.558;2023-12-20T07:52:19;17.60;71.30
67147;DHT22;70072;52.036;5.558;2023-12-20T07:54:45;17.60;71.30
67147;DHT22;70072;52.036;5.558;2023-12-20T07:57:11;17.60;71.90
67147;DHT22;70072;52.036;5.558;2023-12-20T07:59:37;17.60;71.30
67147;DHT22;70072;52.036;5.558;2023-12-20T08:02:03;17.60;71.30
67147;DHT22;70072;52.036;5.558;2023-12-20T08:04:29;17.60;71.30
67147;DHT22;70072;52.036;5.558;2023-12-20T08:06:54;17.60;71.40
67147;DHT22;70072;52.036;5.558;2023-12-20T08:09:21;17.60;71.40
67147;DHT22;70072;52.036;5.558;2023-12-20T08:11:49;17.60;71.40
67147;DHT22;70072;52.036;5.558;2023-12-20T08:14:15;17.60;71.40
67147;DHT22;70072;52.036;5.558;2023-12-20T08:16:41;17.60;71.40
67147;DHT22;70072;52.036;5.558;2023-12-20T08:19:06;17.60;71.40
67147;DHT22;70072;52.036;5.558;2023-12-20T08:21:33;17.60;71.50
67147;DHT22;70072;52.036;5.558;2023-12-20T08:23:59;17.60;71.50
67147;DHT22;70072;52.036;5.558;2023-12-20T08:26:26;17.60;71.50
67147;DHT22;70072;52.036;5.558;2023-12-20T08:28:52;17.60;71.50
67147;DHT22;70072;52.036;5.558;2023-12-20T08:31:18;17.60;71.50
67147;DHT22;70072;52.036;5.558;2023-12-20T08:33:44;17.60;71.50
67147;DHT22;70072;52.036;5.558;2023-12-20T08:36:10;17.60;71.50
67147;DHT22;70072;52.036;5.558;2023-12-20T08:38:36;17.60;71.50
67147;DHT22;70072;52.036;5.558;2023-12-20T08:41:02;17.60;71.50
67147;DHT22;70072;52.036;5.558;2023-12-20T08:43:30;17.60;71.50
67147;DHT22;70072;52.036;5.558;2023-12-20T08:45:56;17.60;71.50
67147;DHT22;70072;52.036;5.558;2023-12-20T08:48:22;17.60;71.50
67147;DHT22;70072;52.036;5.558;2023-12-20T08:50:47;17.60;71.50
67147;DHT22;70072;52.036;5.558;2023-12-20T08:53:15;17.60;71.40
67147;DHT22;70072;52.036;5.558;2023-12-20T08:55:42;17.60;71.40
67147;DHT22;70072;52.036;5.558;2023-12-20T08:58:08;17.60;71.40
67147;DHT22;70072;52.036;5.558;2023-12-20T09:00:34;17.60;71.40
67147;DHT22;70072;52.036;5.558;2023-12-20T09:03:01;17.60;72.10
67147;DHT22;70072;52.036;5.558;2023-12-20T09:05:26;17.60;71.40
67147;DHT22;70072;52.036;5.558;2023-12-20T09:07:52;17.60;71.40
67147;DHT22;70072;52.036;5.558;2023-12-20T09:10:17;17.60;71.40
67147;DHT22;70072;52.036;5.558;2023-12-20T09:12:51;17.60;71.40
67147;DHT22;70072;52.036;5.558;2023-12-20T09:15:17;17.60;71.40
67147;DHT22;70072;52.036;5.558;2023-12-20T09:17:43;17.60;71.40
67147;DHT22;70072;52.036;5.558;2023-12-20T09:20:09;17.60;71.40
67147;DHT22;70072;52.036;5.558;2023-12-20T09:22:35;17.60;71.40
67147;DHT22;70072;52.036;5.558;2023-12-20T09:25:01;17.60;71.40
67147;DHT22;70072;52.036;5.558;2023-12-20T09:27:29;17.60;71.40
67147;DHT22;70072;52.036;5.558;2023-12-20T09:29:55;17.60;71.40
67147;DHT22;70072;52.036;5.558;2023-12-20T09:32:20;17.60;71.40
67147;DHT22;70072;52.036;5.558;2023-12-20T09:34:47;17.60;71.50
67147;DHT22;70072;52.036;5.558;2023-12-20T09:37:13;17.60;71.50
67147;DHT22;70072;52.036;5.558;2023-12-20T09:39:39;17.60;71.50
67147;DHT22;70072;52.036;5.558;2023-12-20T09:42:06;17.60;71.50
67147;DHT22;70072;52.036;5.558;2023-12-20T09:44:32;17.60;71.50
67147;DHT22;70072;52.036;5.558;2023-12-20T09:47:03;17.60;71.50
67147;DHT22;70072;52.036;5.558;2023-12-20T09:49:30;17.60;71.50
67147;DHT22;70072;52.036;5.558;2023-12-20T09:51:56;17.60;71.50
67147;DHT22;70072;52.036;5.558;2023-12-20T09:54:25;17.60;71.50
67147;DHT22;70072;52.036;5.558;2023-12-20T09:56:51;17.60;71.50
67147;DHT22;70072;52.036;5.558;2023-12-20T09:59:17;17.60;71.50
67147;DHT22;70072;52.036;5.558;2023-12-20T10:01:43;17.60;71.50
67147;DHT22;70072;52.036;5.558;2023-12-20T10:04:12;17.60;71.50
67147;DHT22;70072;52.036;5.558;2023-12-20T10:06:39;17.60;71.50
67147;DHT22;70072;52.036;5.558;2023-12-20T10:09:05;17.60;71.50
67147;DHT22;70072;52.036;5.558;2023-12-20T10:11:31;17.60;71.50
67147;DHT22;70072;52.036;5.558;2023-12-20T10:14:00;17.60;72.10
67147;DHT22;70072;52.036;5.558;2023-12-20T10:16:29;17.60;71.50
67147;DHT22;70072;52.036;5.558;2023-12-20T10:18:56;17.60;71.50
67147;DHT22;70072;52.036;5.558;2023-12-20T10:21:25;17.60;71.50
67147;DHT22;70072;52.036;5.558;2023-12-20T10:23:55;17.70;71.50
67147;DHT22;70072;52.036;5.558;2023-12-20T10:26:25;17.60;71.50
67147;DHT22;70072;52.036;5.558;2023-12-20T10:28:55;17.70;71.50
67147;DHT22;70072;52.036;5.558;2023-12-20T10:31:32;17.60;71.50
67147;DHT22;70072;52.036;5.558;2023-12-20T10:33:59;17.70;71.50
67147;DHT22;70072;52.036;5.558;2023-12-20T10:36:27;17.70;71.50
67147;DHT22;70072;52.036;5.558;2023-12-20T10:38:53;17.70;71.50
67147;DHT22;70072;52.036;5.558;2023-12-20T10:41:32;17.60;71.50
67147;DHT22;70072;52.036;5.558;2023-12-20T10:44:04;17.70;71.50
67147;DHT22;70072;52.036;5.558;2023-12-20T10:46:30;17.60;71.50
67147;DHT22;70072;52.036;5.558;2023-12-20T10:48:58;17.70;71.50
67147;DHT22;70072;52.036;5.558;2023-12-20T10:51:25;17.70;71.50
67147;DHT22;70072;52.036;5.558;2023-12-20T10:53:55;17.70;71.50
67147;DHT22;70072;52.036;5.558;2023-12-20T10:56:21;17.70;71.50
67147;DHT22;70072;52.036;5.558;2023-12-20T10:58:51;17.70;71.50
67147;DHT22;70072;52.036;5.558;2023-12-20T11:01:18;17.70;71.40
67147;DHT22;70072;52.036;5.558;2023-12-20T11:03:54;17.70;71.40
67147;DHT22;70072;52.036;5.558;2023-12-20T11:08:55;17.70;71.40
67147;DHT22;70072;52.036;5.558;2023-12-20T11:11:32;17.70;71.40
67147;DHT22;70072;52.036;5.558;2023-12-20T11:14:06;17.70;71.90
67147;DHT22;70072;52.036;5.558;2023-12-20T11:16:37;17.80;71.40
67147;DHT22;70072;52.036;5.558;2023-12-20T11:19:05;17.80;71.40
67147;DHT22;70072;52.036;5.558;2023-12-20T11:21:31;17.80;71.40
67147;DHT22;70072;52.036;5.558;2023-12-20T11:23:57;17.70;71.30
67147;DHT22;70072;52.036;5.558;2023-12-20T11:26:27;17.80;71.30
67147;DHT22;70072;52.036;5.558;2023-12-20T11:28:54;17.80;71.30
67147;DHT22;70072;52.036;5.558;2023-12-20T11:31:19;17.80;71.30
67147;DHT22;70072;52.036;5.558;2023-12-20T11:33:45;17.80;71.20
67147;DHT22;70072;52.036;5.558;2023-12-20T11:36:18;17.80;71.20
67147;DHT22;70072;52.036;5.558;2023-12-20T11:38:57;17.80;71.20
67147;DHT22;70072;52.036;5.558;2023-12-20T11:41:23;17.80;71.20
67147;DHT22;70072;52.036;5.558;2023-12-20T11:43:55;17.80;71.90
67147;DHT22;70072;52.036;5.558;2023-12-20T11:46:22;17.80;71.20
67147;DHT22;70072;52.036;5.558;2023-12-20T11:48:48;17.80;71.20
67147;DHT22;70072;52.036;5.558;2023-12-20T11:51:14;17.80;71.20
67147;DHT22;70072;52.036;5.558;2023-12-20T11:53:40;17.90;71.30
67147;DHT22;70072;52.036;5.558;2023-12-20T11:56:08;17.80;71.20
67147;DHT22;70072;52.036;5.558;2023-12-20T11:58:34;17.80;71.20
67147;DHT22;70072;52.036;5.558;2023-12-20T12:01:00;17.90;71.80
67147;DHT22;70072;52.036;5.558;2023-12-20T12:03:27;17.90;71.30
67147;DHT22;70072;52.036;5.558;2023-12-20T12:05:53;17.90;71.30
67147;DHT22;70072;52.036;5.558;2023-12-20T12:08:19;17.90;71.20
67147;DHT22;70072;52.036;5.558;2023-12-20T12:10:45;17.90;71.30
67147;DHT22;70072;52.036;5.558;2023-12-20T12:13:11;17.90;71.30
67147;DHT22;70072;52.036;5.558;2023-12-20T12:15:37;17.90;71.30
67147;DHT22;70072;52.036;5.558;2023-12-20T12:18:03;17.90;71.30
67147;DHT22;70072;52.036;5.558;2023-12-20T12:20:29;17.90;71.30
67147;DHT22;70072;52.036;5.558;2023-12-20T12:23:03;17.90;71.40
67147;DHT22;70072;52.036;5.558;2023-12-20T12:25:30;17.90;71.40
67147;DHT22;70072;52.036;5.558;2023-12-20T12:27:57;17.90;71.50
67147;DHT22;70072;52.036;5.558;2023-12-20T12:30:23;17.80;71.40
67147;DHT22;70072;52.036;5.558;2023-12-20T12:32:51;17.90;71.50
67147;DHT22;70072;52.036;5.558;2023-12-20T12:35:17;17.80;71.50
67147;DHT22;70072;52.036;5.558;2023-12-20T12:37:43;17.90;71.50
67147;DHT22;70072;52.036;5.558;2023-12-20T12:40:13;17.90;71.50
67147;DHT22;70072;52.036;5.558;2023-12-20T12:42:39;17.90;71.50
67147;DHT22;70072;52.036;5.558;2023-12-20T12:45:05;17.90;71.50
67147;DHT22;70072;52.036;5.558;2023-12-20T12:47:34;17.90;71.50
67147;DHT22;70072;52.036;5.558;2023-12-20T12:50:00;17.90;71.50
67147;DHT22;70072;52.036;5.558;2023-12-20T12:52:26;17.90;71.50
67147;DHT22;70072;52.036;5.558;2023-12-20T12:54:53;17.90;71.60
67147;DHT22;70072;52.036;5.558;2023-12-20T12:57:19;17.90;71.50
67147;DHT22;70072;52.036;5.558;2023-12-20T12:59:45;17.90;71.50
67147;DHT22;70072;52.036;5.558;2023-12-20T13:02:12;17.90;71.50
67147;DHT22;70072;52.036;5.558;2023-12-20T13:04:39;17.90;71.60
67147;DHT22;70072;52.036;5.558;2023-12-20T13:07:05;17.90;71.50
67147;DHT22;70072;52.036;5.558;2023-12-20T13:09:31;17.90;71.50
67147;DHT22;70072;52.036;5.558;2023-12-20T13:12:00;17.90;71.60
67147;DHT22;70072;52.036;5.558;2023-12-20T13:14:28;17.90;71.50
67147;DHT22;70072;52.036;5.558;2023-12-20T13:16:55;17.90;71.50
67147;DHT22;70072;52.036;5.558;2023-12-20T13:19:21;17.90;71.60
67147;DHT22;70072;52.036;5.558;2023-12-20T13:21:46;17.90;71.60
67147;DHT22;70072;52.036;5.558;2023-12-20T13:24:12;17.90;71.60
67147;DHT22;70072;52.036;5.558;2023-12-20T13:26:38;17.90;71.50
67147;DHT22;70072;52.036;5.558;2023-12-20T13:29:03;17.90;71.60
67147;DHT22;70072;52.036;5.558;2023-12-20T13:31:29;17.90;71.60
67147;DHT22;70072;52.036;5.558;2023-12-20T13:33:54;17.90;71.60
67147;DHT22;70072;52.036;5.558;2023-12-20T13:36:20;17.90;71.60
67147;DHT22;70072;52.036;5.558;2023-12-20T13:38:46;17.90;71.60
67147;DHT22;70072;52.036;5.558;2023-12-20T13:41:11;17.90;71.60
67147;DHT22;70072;52.036;5.558;2023-12-20T13:43:37;17.90;71.60
67147;DHT22;70072;52.036;5.558;2023-12-20T13:46:03;17.90;71.60
67147;DHT22;70072;52.036;5.558;2023-12-20T13:48:31;17.90;71.60
67147;DHT22;70072;52.036;5.558;2023-12-20T13:50:57;17.90;71.60
67147;DHT22;70072;52.036;5.558;2023-12-20T13:53:22;17.90;71.60
67147;DHT22;70072;52.036;5.558;2023-12-20T13:55:48;17.90;71.60
67147;DHT22;70072;52.036;5.558;2023-12-20T13:58:15;17.90;71.60
67147;DHT22;70072;52.036;5.558;2023-12-20T14:00:40;17.90;71.60
67147;DHT22;70072;52.036;5.558;2023-12-20T14:03:06;17.90;71.60
67147;DHT22;70072;52.036;5.558;2023-12-20T14:05:32;17.90;71.60
67147;DHT22;70072;52.036;5.558;2023-12-20T14:07:59;17.90;71.60
67147;DHT22;70072;52.036;5.558;2023-12-20T14:10:24;17.90;71.60
67147;DHT22;70072;52.036;5.558;2023-12-20T14:12:56;17.90;71.60
67147;DHT22;70072;52.036;5.558;2023-12-20T14:15:22;17.90;71.50
67147;DHT22;70072;52.036;5.558;2023-12-20T14:17:50;17.90;71.50
67147;DHT22;70072;52.036;5.558;2023-12-20T14:20:16;17.90;71.50
67147;DHT22;70072;52.036;5.558;2023-12-20T14:22:43;17.90;71.50
67147;DHT22;70072;52.036;5.558;2023-12-20T14:25:12;17.90;71.50
67147;DHT22;70072;52.036;5.558;2023-12-20T14:27:39;17.90;71.50
67147;DHT22;70072;52.036;5.558;2023-12-20T14:30:05;17.90;71.50
67147;DHT22;70072;52.036;5.558;2023-12-20T14:32:35;17.90;71.50
67147;DHT22;70072;52.036;5.558;2023-12-20T14:35:05;17.90;71.50
67147;DHT22;70072;52.036;5.558;2023-12-20T14:37:31;17.90;71.50
67147;DHT22;70072;52.036;5.558;2023-12-20T14:39:57;17.90;71.50
67147;DHT22;70072;52.036;5.558;2023-12-20T14:42:23;17.90;71.50
67147;DHT22;70072;52.036;5.558;2023-12-20T14:44:48;17.90;71.50
67147;DHT22;70072;52.036;5.558;2023-12-20T14:47:14;18.00;71.60
67147;DHT22;70072;52.036;5.558;2023-12-20T14:49:41;17.90;71.40
67147;DHT22;70072;52.036;5.558;2023-12-20T14:52:08;18.00;71.50
67147;DHT22;70072;52.036;5.558;2023-12-20T14:54:37;17.90;71.50
67147;DHT22;70072;52.036;5.558;2023-12-20T14:57:02;18.00;71.50
67147;DHT22;70072;52.036;5.558;2023-12-20T14:59:28;17.90;71.40
67147;DHT22;70072;52.036;5.558;2023-12-20T15:01:53;17.90;71.50
67147;DHT22;70072;52.036;5.558;2023-12-20T15:04:20;17.90;71.40
67147;DHT22;70072;52.036;5.558;2023-12-20T15:06:52;17.90;71.50
67147;DHT22;70072;52.036;5.558;2023-12-20T15:09:18;17.90;71.00
67147;DHT22;70072;52.036;5.558;2023-12-20T15:11:44;17.90;71.50
67147;DHT22;70072;52.036;5.558;2023-12-20T15:14:10;17.90;71.50
67147;DHT22;70072;52.036;5.558;2023-12-20T15:16:36;17.90;72.10
67147;DHT22;70072;52.036;5.558;2023-12-20T15:19:01;17.90;71.50
67147;DHT22;70072;52.036;5.558;2023-12-20T15:21:27;17.90;71.50
67147;DHT22;70072;52.036;5.558;2023-12-20T15:23:58;17.90;71.50
67147;DHT22;70072;52.036;5.558;2023-12-20T15:26:34;17.90;71.50
67147;DHT22;70072;52.036;5.558;2023-12-20T15:29:03;17.90;71.50